Terminal Aerodrome Forecast
Issued by NWS

Home | Current Version | Previous Version | Text Only | Print | Product List | Glossary On
Versions: 1 2 3 4 5 6 7 8 9 10 11 12 13 14 15 16
000
FTUS44 KCRP 260539
TAFALI
TAF
KALI 260539Z 2606/2706 14006KT 4SM BR BKN018
      TEMPO 2609/2613 2SM BR OVC008
     FM261300 16010KT P6SM SCT012 BKN025
     FM261800 14014G18KT P6SM SCT025 BKN040
     FM270100 13009KT P6SM SCT025
     FM270400 15006KT P6SM BKN015=

USA.gov is the U.S. government's official web portal to all federal, state and local government web resources and services.